Time;durP1;ratioP1;P1;durP2;ratioP2;P2;SDS_P1;SDS_P2;PMS_P1;PMS_P2;Temp;Humidity;BMP_temperature;BMP_pressure;BME280_temperature;BME280_humidity;BME280_pressure;Samples;Min_cycle;Max_cycle;Signal;HPM_P1;HPM_P2
2021/03/05 00:00:29;;;;;;;;;;;-1.70;77.30;;;;;;5094517;28;19916;-65
2021/03/05 00:02:55;;;;;;;;;;;-1.70;77.70;;;;;;5094376;28;19912;-65
2021/03/05 00:05:21;;;;;;;;;;;-1.70;77.90;;;;;;5076079;28;19916;-64
2021/03/05 00:07:47;;;;;;;;;;;-1.70;78.10;;;;;;5094434;28;19969;-64
2021/03/05 00:10:14;;;;;;;;;;;-1.70;78.20;;;;;;5093725;28;19916;-64
2021/03/05 00:12:40;;;;;;;;;;;-1.70;78.30;;;;;;5094231;28;19915;-64
2021/03/05 00:15:10;;;;;;;;;;;-1.70;78.60;;;;;;5093598;28;19924;-64
2021/03/05 00:17:36;;;;;;;;;;;-1.70;78.90;;;;;;5075713;28;19919;-64
2021/03/05 00:20:11;;;;;;;;;;;-1.80;79.00;;;;;;5093012;28;20373;-64
2021/03/05 00:22:37;;;;;;;;;;;-1.80;79.30;;;;;;5094275;28;19916;-64
2021/03/05 00:25:03;;;;;;;;;;;-1.80;79.80;;;;;;5093625;28;19957;-64
2021/03/05 00:27:29;;;;;;;;;;;-1.90;80.20;;;;;;5094053;28;19916;-64
2021/03/05 00:29:56;;;;;;;;;;;-1.90;81.10;;;;;;5093546;28;20326;-65
2021/03/05 00:32:21;;;;;;;;;;;-1.90;81.10;;;;;;5094343;28;19923;-64
2021/03/05 00:34:47;;;;;;;;;;;-1.90;81.20;;;;;;5093884;28;19924;-65
2021/03/05 00:37:13;;;;;;;;;;;-2.00;81.70;;;;;;5093356;28;19916;-65
2021/03/05 00:39:39;;;;;;;;;;;-1.90;81.80;;;;;;5093824;28;19948;-65
2021/03/05 00:42:05;;;;;;;;;;;-1.90;81.90;;;;;;5093462;28;19912;-64
2021/03/05 00:44:31;;;;;;;;;;;-1.90;82.00;;;;;;5093548;28;19912;-64
2021/03/05 00:46:57;;;;;;;;;;;-1.90;82.10;;;;;;5093460;28;19916;-64
2021/03/05 00:49:23;;;;;;;;;;;-1.90;81.90;;;;;;5093522;28;19913;-64
2021/03/05 00:51:49;;;;;;;;;;;-1.90;81.60;;;;;;5093096;28;19956;-64
2021/03/05 00:54:15;;;;;;;;;;;-1.90;82.00;;;;;;5092788;28;20356;-65
2021/03/05 00:56:41;;;;;;;;;;;-1.90;82.10;;;;;;5092680;28;19916;-65
2021/03/05 00:59:07;;;;;;;;;;;-2.00;82.50;;;;;;5093082;28;19923;-64
2021/03/05 01:01:33;;;;;;;;;;;-2.00;83.30;;;;;;5093477;28;19924;-64
2021/03/05 01:03:59;;;;;;;;;;;-2.00;83.60;;;;;;5093012;28;19919;-65
2021/03/05 01:06:25;;;;;;;;;;;-2.00;84.10;;;;;;5093188;28;19956;-64
2021/03/05 01:08:51;;;;;;;;;;;-1.90;84.00;;;;;;5093263;28;19920;-64
2021/03/05 01:11:17;;;;;;;;;;;-2.00;84.00;;;;;;5092917;28;20282;-65
2021/03/05 01:13:42;;;;;;;;;;;-2.00;84.60;;;;;;5093348;28;19916;-65
2021/03/05 01:16:09;;;;;;;;;;;-1.90;84.60;;;;;;5093026;28;19962;-64
2021/03/05 01:18:35;;;;;;;;;;;-2.10;84.50;;;;;;5092942;28;19923;-65
2021/03/05 01:21:01;;;;;;;;;;;-2.20;85.10;;;;;;5074920;28;19919;-64
2021/03/05 01:23:26;;;;;;;;;;;-2.30;85.30;;;;;;5092268;28;20389;-65
2021/03/05 01:25:52;;;;;;;;;;;-2.40;85.30;;;;;;5092838;28;19924;-64
2021/03/05 01:28:18;;;;;;;;;;;-2.40;86.10;;;;;;5092756;28;19920;-65
2021/03/05 01:30:44;;;;;;;;;;;-2.40;86.90;;;;;;5092813;28;19952;-65
2021/03/05 01:33:10;;;;;;;;;;;-2.40;87.20;;;;;;5092700;28;19923;-65
2021/03/05 01:35:36;;;;;;;;;;;-2.40;86.90;;;;;;5092350;28;19924;-64
2021/03/05 01:38:02;;;;;;;;;;;-2.30;86.70;;;;;;5092718;28;19912;-64
2021/03/05 01:40:28;;;;;;;;;;;-2.30;86.80;;;;;;5092305;28;20007;-64
2021/03/05 01:42:54;;;;;;;;;;;-2.40;87.20;;;;;;5092319;28;19916;-65
2021/03/05 01:45:21;;;;;;;;;;;-2.40;87.10;;;;;;5091789;28;19924;-64
2021/03/05 01:47:48;;;;;;;;;;;-2.40;87.10;;;;;;5091478;28;19919;-64
2021/03/05 01:50:15;;;;;;;;;;;-2.40;87.40;;;;;;5090574;28;19916;-65
2021/03/05 01:52:45;;;;;;;;;;;-2.30;87.20;;;;;;5092033;28;19913;-65
2021/03/05 01:55:11;;;;;;;;;;;-2.30;87.20;;;;;;5091704;28;19924;-65
2021/03/05 01:57:37;;;;;;;;;;;-2.30;87.20;;;;;;5071541;28;19924;-65
2021/03/05 02:00:03;;;;;;;;;;;-2.30;87.10;;;;;;5092146;28;20396;-65
2021/03/05 02:02:29;;;;;;;;;;;-2.30;86.80;;;;;;5092368;28;19919;-65
2021/03/05 02:04:55;;;;;;;;;;;-2.20;86.60;;;;;;5091767;28;19916;-65
2021/03/05 02:07:21;;;;;;;;;;;-2.20;86.70;;;;;;5091980;28;19920;-65
2021/03/05 02:09:47;;;;;;;;;;;-2.20;86.60;;;;;;5087183;28;19924;-65
2021/03/05 02:12:13;;;;;;;;;;;-2.20;86.60;;;;;;5091935;28;20388;-64
2021/03/05 02:14:39;;;;;;;;;;;-2.30;86.80;;;;;;5091656;28;19924;-64
2021/03/05 02:17:05;;;;;;;;;;;-2.20;87.20;;;;;;5091600;28;19912;-65
2021/03/05 02:19:43;;;;;;;;;;;-2.30;87.00;;;;;;5093411;28;19924;-65
2021/03/05 02:22:09;;;;;;;;;;;-2.30;86.90;;;;;;5094247;28;20254;-65
2021/03/05 02:24:53;;;;;;;;;;;-2.30;87.30;;;;;;5076129;28;19919;-66
2021/03/05 02:27:28;;;;;;;;;;;-2.30;87.20;;;;;;5086936;28;19916;-65
2021/03/05 02:30:17;;;;;;;;;;;-2.20;87.20;;;;;;5090615;28;19920;-65
2021/03/05 02:32:56;;;;;;;;;;;-2.20;87.40;;;;;;5057021;28;19913;-66
2021/03/05 02:35:22;;;;;;;;;;;-2.30;87.50;;;;;;5071314;28;20303;-65
2021/03/05 02:37:48;;;;;;;;;;;-2.30;87.70;;;;;;5076577;28;19920;-64
2021/03/05 02:40:19;;;;;;;;;;;-2.30;87.70;;;;;;5076428;28;19920;-64
2021/03/05 02:42:45;;;;;;;;;;;-2.40;88.30;;;;;;5094586;28;19912;-65
2021/03/05 02:45:11;;;;;;;;;;;-2.50;88.40;;;;;;5094764;28;20280;-65
2021/03/05 02:47:37;;;;;;;;;;;-2.50;88.40;;;;;;5076519;28;19939;-65
2021/03/05 02:50:03;;;;;;;;;;;-2.40;88.40;;;;;;5076559;28;19927;-64
2021/03/05 02:52:30;;;;;;;;;;;-2.50;88.70;;;;;;5094065;28;19923;-65
2021/03/05 02:54:56;;;;;;;;;;;-2.50;88.80;;;;;;5076299;28;19931;-64
2021/03/05 02:57:23;;;;;;;;;;;-2.50;88.70;;;;;;5094043;28;19931;-65
2021/03/05 02:59:49;;;;;;;;;;;-2.50;88.80;;;;;;5076163;28;19912;-65
2021/03/05 03:02:14;;;;;;;;;;;-2.60;89.00;;;;;;5076096;28;19991;-65
2021/03/05 03:04:44;;;;;;;;;;;-2.60;89.20;;;;;;5076236;28;19919;-64
2021/03/05 03:07:10;;;;;;;;;;;-2.60;89.30;;;;;;5075409;28;20276;-65
2021/03/05 03:09:37;;;;;;;;;;;-2.60;89.70;;;;;;5076011;28;19919;-65
2021/03/05 03:12:02;;;;;;;;;;;-2.60;90.10;;;;;;5075249;28;19912;-64
2021/03/05 03:14:29;;;;;;;;;;;-2.50;89.60;;;;;;5075533;28;20019;-65
2021/03/05 03:16:55;;;;;;;;;;;-2.50;89.40;;;;;;5075690;28;20376;-65
2021/03/05 03:19:21;;;;;;;;;;;-2.60;89.20;;;;;;5094568;28;19917;-65
2021/03/05 03:21:47;;;;;;;;;;;-2.80;89.40;;;;;;5095410;28;19923;-64
2021/03/05 03:24:13;;;;;;;;;;;-2.90;90.20;;;;;;5076662;28;20292;-64
2021/03/05 03:26:39;;;;;;;;;;;-3.00;90.50;;;;;;5095152;28;19913;-64
2021/03/05 03:29:08;;;;;;;;;;;-2.90;90.50;;;;;;5094173;28;19916;-64
2021/03/05 03:31:35;;;;;;;;;;;-2.90;90.60;;;;;;5092244;28;19924;-64
2021/03/05 03:34:01;;;;;;;;;;;-2.80;90.50;;;;;;5091740;28;19923;-64
2021/03/05 03:36:27;;;;;;;;;;;-2.70;90.50;;;;;;5073738;28;19927;-64
2021/03/05 03:38:53;;;;;;;;;;;-2.80;90.40;;;;;;5093049;28;20281;-64
2021/03/05 03:41:19;;;;;;;;;;;-2.80;90.50;;;;;;5092881;28;19974;-64
2021/03/05 03:43:45;;;;;;;;;;;-2.80;90.50;;;;;;5075761;28;19912;-64
2021/03/05 03:46:11;;;;;;;;;;;-2.80;90.60;;;;;;5093298;28;19917;-64
2021/03/05 03:48:42;;;;;;;;;;;-2.70;90.70;;;;;;5093469;28;19930;-64
2021/03/05 03:51:08;;;;;;;;;;;-2.70;90.50;;;;;;5075447;28;19920;-64
2021/03/05 03:53:35;;;;;;;;;;;-2.70;90.50;;;;;;5075641;28;19916;-65
2021/03/05 03:56:01;;;;;;;;;;;-2.70;90.50;;;;;;5074751;28;19935;-64
2021/03/05 03:58:27;;;;;;;;;;;-2.60;90.30;;;;;;5091670;28;19916;-65
2021/03/05 04:00:54;;;;;;;;;;;-2.70;90.30;;;;;;5071376;28;19951;-64
2021/03/05 04:03:23;;;;;;;;;;;-2.70;90.20;;;;;;5073795;28;19931;-65
2021/03/05 04:05:49;;;;;;;;;;;-2.80;90.20;;;;;;5091942;28;19919;-64
2021/03/05 04:08:15;;;;;;;;;;;-2.80;90.50;;;;;;5073083;28;20022;-65
2021/03/05 04:10:41;;;;;;;;;;;-3.00;90.70;;;;;;5073638;28;19962;-64
2021/03/05 04:13:08;;;;;;;;;;;-3.00;90.90;;;;;;5091939;28;20676;-64
2021/03/05 04:15:35;;;;;;;;;;;-2.90;90.90;;;;;;5090594;28;19920;-64
2021/03/05 04:18:00;;;;;;;;;;;-3.00;91.00;;;;;;5073995;28;19912;-64
2021/03/05 04:20:26;;;;;;;;;;;-3.10;91.10;;;;;;5091899;28;19924;-64
2021/03/05 04:22:52;;;;;;;;;;;-3.20;91.10;;;;;;5072939;28;19916;-64
2021/03/05 04:25:18;;;;;;;;;;;-3.30;91.40;;;;;;5073465;28;19918;-65
2021/03/05 04:27:44;;;;;;;;;;;-3.30;91.50;;;;;;5091372;28;19920;-64
2021/03/05 04:30:11;;;;;;;;;;;-3.30;91.50;;;;;;5039868;28;1403279;-64
2021/03/05 04:32:38;;;;;;;;;;;-3.30;91.70;;;;;;5092760;28;19983;-64
2021/03/05 04:35:05;;;;;;;;;;;-3.30;91.70;;;;;;5092383;28;19928;-64
2021/03/05 04:37:31;;;;;;;;;;;-3.20;91.70;;;;;;5073944;28;20276;-64
2021/03/05 04:39:57;;;;;;;;;;;-3.20;91.50;;;;;;5092232;28;19936;-64
2021/03/05 04:42:23;;;;;;;;;;;-3.10;91.40;;;;;;5073568;28;20383;-64
2021/03/05 04:44:49;;;;;;;;;;;-3.10;91.20;;;;;;5092075;28;19923;-64
2021/03/05 04:47:15;;;;;;;;;;;-3.10;91.20;;;;;;5092573;28;19948;-64
2021/03/05 04:49:41;;;;;;;;;;;-3.10;91.20;;;;;;5091952;28;19916;-64
2021/03/05 04:52:07;;;;;;;;;;;-3.10;91.20;;;;;;5091937;28;20033;-64
2021/03/05 04:54:33;;;;;;;;;;;-3.10;91.30;;;;;;5092180;28;20377;-65
2021/03/05 04:56:59;;;;;;;;;;;-3.20;91.30;;;;;;5091954;28;19916;-64
2021/03/05 04:59:25;;;;;;;;;;;-3.20;91.40;;;;;;5090989;28;19916;-64
2021/03/05 05:01:51;;;;;;;;;;;-3.30;91.50;;;;;;5092043;28;19998;-64
2021/03/05 05:04:17;;;;;;;;;;;-3.40;91.60;;;;;;5091971;28;19966;-64
2021/03/05 05:06:43;;;;;;;;;;;-3.40;91.80;;;;;;5091937;28;19924;-64
2021/03/05 05:09:09;;;;;;;;;;;-3.40;92.00;;;;;;5093086;28;19919;-64
2021/03/05 05:11:35;;;;;;;;;;;-3.40;91.90;;;;;;5092071;28;19916;-64
2021/03/05 05:14:01;;;;;;;;;;;-3.40;91.80;;;;;;5092572;28;19927;-64
2021/03/05 05:16:28;;;;;;;;;;;-3.40;91.90;;;;;;5092387;28;19927;-64
2021/03/05 05:18:54;;;;;;;;;;;-3.40;91.90;;;;;;5092739;28;19919;-64
2021/03/05 05:21:20;;;;;;;;;;;-3.40;91.90;;;;;;5092302;28;19912;-64
2021/03/05 05:23:46;;;;;;;;;;;-3.50;92.00;;;;;;5073679;28;19927;-64
2021/03/05 05:26:12;;;;;;;;;;;-3.50;92.10;;;;;;5092560;28;20011;-64
2021/03/05 05:28:38;;;;;;;;;;;-3.60;92.10;;;;;;5092127;28;19923;-64
2021/03/05 05:31:04;;;;;;;;;;;-3.50;92.20;;;;;;5091848;28;19989;-65
2021/03/05 05:33:30;;;;;;;;;;;-3.50;92.20;;;;;;5091819;28;19919;-64
2021/03/05 05:35:56;;;;;;;;;;;-3.50;92.20;;;;;;5092133;28;20018;-64
2021/03/05 05:38:22;;;;;;;;;;;-3.50;92.10;;;;;;5092596;28;19994;-64
2021/03/05 05:40:48;;;;;;;;;;;-3.50;92.10;;;;;;5092265;28;19916;-64
2021/03/05 05:43:14;;;;;;;;;;;-3.60;92.20;;;;;;5074884;28;20274;-64
2021/03/05 05:45:40;;;;;;;;;;;-3.60;92.30;;;;;;5092470;28;20275;-64
2021/03/05 05:48:08;;;;;;;;;;;-3.50;92.00;;;;;;5091249;28;20300;-64
2021/03/05 05:50:34;;;;;;;;;;;-3.40;92.00;;;;;;5073776;28;19920;-64
2021/03/05 05:53:00;;;;;;;;;;;-3.40;91.90;;;;;;5092340;28;19916;-64
2021/03/05 05:55:25;;;;;;;;;;;-3.30;91.80;;;;;;5090131;28;20368;-64
2021/03/05 05:57:51;;;;;;;;;;;-3.30;91.80;;;;;;5074167;28;19928;-63
2021/03/05 06:00:18;;;;;;;;;;;-3.30;91.80;;;;;;5091044;28;20369;-63
2021/03/05 06:02:44;;;;;;;;;;;-3.40;91.90;;;;;;5092177;28;19919;-64
2021/03/05 06:05:13;;;;;;;;;;;-3.50;92.00;;;;;;5074001;28;19924;-64
2021/03/05 06:07:40;;;;;;;;;;;-3.50;92.00;;;;;;5073108;28;20360;-65
2021/03/05 06:10:06;;;;;;;;;;;-3.60;92.10;;;;;;5073954;28;19912;-64
2021/03/05 06:12:32;;;;;;;;;;;-3.50;92.20;;;;;;5073739;28;19912;-64
2021/03/05 06:14:58;;;;;;;;;;;-3.50;92.10;;;;;;5092029;28;20308;-65
2021/03/05 06:17:39;;;;;;;;;;;-3.60;92.10;;;;;;5092242;28;19920;-65
2021/03/05 06:20:05;;;;;;;;;;;-3.50;92.00;;;;;;5073708;28;19919;-64
2021/03/05 06:22:31;;;;;;;;;;;-3.50;92.00;;;;;;5092176;28;19923;-64
2021/03/05 06:24:57;;;;;;;;;;;-3.40;91.80;;;;;;5091759;28;19920;-65
2021/03/05 06:27:27;;;;;;;;;;;-3.40;91.50;;;;;;5090209;28;19931;-65
2021/03/05 06:29:52;;;;;;;;;;;-3.30;91.40;;;;;;5091863;28;19927;-65
2021/03/05 06:32:19;;;;;;;;;;;-3.30;91.50;;;;;;5091493;28;20288;-65
2021/03/05 06:34:48;;;;;;;;;;;-3.20;91.60;;;;;;5073546;28;19923;-64
2021/03/05 06:37:15;;;;;;;;;;;-3.20;91.70;;;;;;5092074;28;19912;-64
2021/03/05 06:39:41;;;;;;;;;;;-3.10;91.70;;;;;;5091512;28;20284;-65
2021/03/05 06:42:07;;;;;;;;;;;-3.00;91.60;;;;;;5091509;28;19923;-64
2021/03/05 06:44:34;;;;;;;;;;;-2.90;91.60;;;;;;5091714;28;19912;-65
2021/03/05 06:47:10;;;;;;;;;;;-2.80;91.70;;;;;;5073053;28;19912;-64
2021/03/05 06:49:36;;;;;;;;;;;-2.70;91.80;;;;;;5091439;28;20391;-65
2021/03/05 06:52:02;;;;;;;;;;;-2.60;91.40;;;;;;5090701;28;19952;-64
2021/03/05 06:54:32;;;;;;;;;;;-2.50;91.10;;;;;;5091111;28;20492;-64
2021/03/05 06:56:58;;;;;;;;;;;-2.30;90.70;;;;;;5090633;28;19927;-64
2021/03/05 06:59:24;;;;;;;;;;;-2.20;90.30;;;;;;5090996;28;20328;-64
2021/03/05 07:01:53;;;;;;;;;;;-2.00;90.20;;;;;;5090244;28;20295;-64
2021/03/05 07:04:28;;;;;;;;;;;-2.00;89.90;;;;;;5094542;28;19911;-64
2021/03/05 07:06:57;;;;;;;;;;;-1.90;89.80;;;;;;5089276;28;19928;-64
2021/03/05 07:09:26;;;;;;;;;;;-1.70;89.40;;;;;;5092788;28;19912;-64
2021/03/05 07:11:54;;;;;;;;;;;-1.60;88.30;;;;;;5089822;28;19912;-64
2021/03/05 07:14:24;;;;;;;;;;;-1.40;88.00;;;;;;5091103;28;19939;-65
2021/03/05 07:16:50;;;;;;;;;;;-1.30;87.50;;;;;;5088573;28;20349;-63
2021/03/05 07:19:17;;;;;;;;;;;-1.20;86.30;;;;;;5090864;28;19912;-64
2021/03/05 07:21:43;;;;;;;;;;;-1.10;85.10;;;;;;5077600;28;20292;-65
2021/03/05 07:24:10;;;;;;;;;;;-0.90;83.80;;;;;;5094802;28;19913;-64
2021/03/05 07:26:43;;;;;;;;;;;-0.70;83.30;;;;;;5101016;28;19920;-64
2021/03/05 07:29:17;;;;;;;;;;;-0.60;80.00;;;;;;5094409;28;19916;-65
2021/03/05 07:31:44;;;;;;;;;;;-0.40;81.90;;;;;;5094568;28;19931;-65
2021/03/05 07:34:17;;;;;;;;;;;0.00;81.60;;;;;;5094231;28;19920;-65
2021/03/05 07:36:45;;;;;;;;;;;0.80;80.20;;;;;;5093330;28;19912;-65
2021/03/05 07:39:11;;;;;;;;;;;1.90;72.20;;;;;;5059726;28;19919;-65
2021/03/05 07:41:37;;;;;;;;;;;2.30;67.30;;;;;;5093432;28;19939;-65
2021/03/05 07:44:03;;;;;;;;;;;2.70;62.40;;;;;;5075490;28;20273;-65
2021/03/05 07:46:29;;;;;;;;;;;3.70;60.60;;;;;;5075607;28;19920;-66
2021/03/05 07:48:55;;;;;;;;;;;3.30;61.00;;;;;;5094113;28;20377;-65
2021/03/05 07:51:21;;;;;;;;;;;3.20;58.90;;;;;;5094162;28;19961;-65
2021/03/05 07:53:53;;;;;;;;;;;3.50;59.20;;;;;;5075322;28;19912;-65
2021/03/05 07:56:38;;;;;;;;;;;4.40;55.60;;;;;;5093842;28;20270;-66
2021/03/05 07:59:04;;;;;;;;;;;5.10;53.00;;;;;;5093901;28;19924;-65
2021/03/05 08:02:05;;;;;;;;;;;5.30;49.80;;;;;;5093765;28;19961;-66
2021/03/05 08:04:56;;;;;;;;;;;5.50;48.10;;;;;;4991035;28;19921;-65
2021/03/05 08:07:28;;;;;;;;;;;5.70;46.50;;;;;;5089794;28;19920;-66
2021/03/05 08:09:56;;;;;;;;;;;6.40;46.70;;;;;;5094018;28;20361;-65
2021/03/05 08:12:36;;;;;;;;;;;6.10;45.90;;;;;;5093616;28;20276;-65
2021/03/05 08:15:08;;;;;;;;;;;5.60;46.10;;;;;;5092288;28;19908;-65
2021/03/05 08:17:34;;;;;;;;;;;5.70;46.10;;;;;;5093377;28;19920;-65
2021/03/05 08:20:00;;;;;;;;;;;5.60;45.50;;;;;;5093720;28;19919;-65
2021/03/05 08:22:27;;;;;;;;;;;5.20;46.20;;;;;;5093952;28;19924;-65
2021/03/05 08:24:53;;;;;;;;;;;5.20;45.90;;;;;;5093680;28;20353;-65
2021/03/05 08:27:39;;;;;;;;;;;6.00;44.10;;;;;;5075905;28;19996;-65
2021/03/05 08:30:08;;;;;;;;;;;6.10;42.60;;;;;;5092276;28;19927;-65
2021/03/05 08:32:34;;;;;;;;;;;6.80;42.20;;;;;;5092245;28;20277;-65
2021/03/05 08:35:12;;;;;;;;;;;6.40;41.60;;;;;;5093527;28;20391;-65
2021/03/05 08:37:42;;;;;;;;;;;6.70;41.90;;;;;;5093444;28;19942;-66
2021/03/05 08:40:16;;;;;;;;;;;6.80;39.90;;;;;;5057373;28;20427;-62
2021/03/05 08:42:42;;;;;;;;;;;6.30;40.80;;;;;;5075206;28;19915;-62
2021/03/05 08:45:11;;;;;;;;;;;6.40;41.90;;;;;;5092508;28;20296;-65
2021/03/05 08:47:39;;;;;;;;;;;6.70;40.10;;;;;;5091528;28;19908;-65
2021/03/05 08:50:05;;;;;;;;;;;7.30;38.90;;;;;;5093451;28;19915;-64
2021/03/05 08:52:31;;;;;;;;;;;7.90;37.10;;;;;;5075595;28;19908;-65
2021/03/05 08:54:57;;;;;;;;;;;8.10;36.10;;;;;;5093903;28;19908;-65
2021/03/05 08:57:23;;;;;;;;;;;7.50;36.60;;;;;;5094166;28;20333;-65
2021/03/05 08:59:51;;;;;;;;;;;7.30;37.60;;;;;;5093996;28;19908;-65
2021/03/05 09:02:17;;;;;;;;;;;8.40;37.80;;;;;;5093580;28;19924;-65
2021/03/05 09:04:43;;;;;;;;;;;9.70;32.80;;;;;;5088403;28;19951;-65
2021/03/05 09:07:13;;;;;;;;;;;10.00;31.30;;;;;;5090705;28;19947;-65
2021/03/05 09:09:39;;;;;;;;;;;11.30;29.10;;;;;;5093571;28;19912;-66
2021/03/05 09:12:09;;;;;;;;;;;10.80;30.00;;;;;;5093010;28;19916;-64
2021/03/05 09:14:35;;;;;;;;;;;10.70;29.30;;;;;;5075365;28;19919;-63
2021/03/05 09:17:02;;;;;;;;;;;9.50;30.60;;;;;;5074827;28;19919;-63
2021/03/05 09:19:31;;;;;;;;;;;10.00;31.10;;;;;;5093589;28;19912;-66
2021/03/05 09:22:10;;;;;;;;;;;10.20;30.80;;;;;;5093279;28;20273;-65
2021/03/05 09:24:55;;;;;;;;;;;10.60;29.00;;;;;;5093413;28;19915;-64
2021/03/05 09:27:22;;;;;;;;;;;11.30;28.20;;;;;;5091535;28;19931;-63
2021/03/05 09:29:48;;;;;;;;;;;12.50;27.40;;;;;;5092660;28;19931;-63
2021/03/05 09:32:14;;;;;;;;;;;11.80;27.50;;;;;;5075110;28;20788;-62
2021/03/05 09:34:59;;;;;;;;;;;11.40;27.70;;;;;;5074356;28;19912;-62
2021/03/05 09:37:28;;;;;;;;;;;11.30;27.60;;;;;;5091040;28;19919;-63
2021/03/05 09:39:55;;;;;;;;;;;11.40;28.10;;;;;;5074872;28;19912;-63
2021/03/05 09:42:39;;;;;;;;;;;11.70;26.90;;;;;;5092545;28;19916;-63
2021/03/05 09:45:05;;;;;;;;;;;12.10;25.80;;;;;;5092600;28;19909;-62
2021/03/05 09:47:50;;;;;;;;;;;11.20;26.80;;;;;;5092936;28;19912;-63
2021/03/05 09:50:20;;;;;;;;;;;10.00;28.20;;;;;;5092475;28;20377;-62
2021/03/05 09:52:46;;;;;;;;;;;10.10;29.90;;;;;;5092254;28;19924;-62
2021/03/05 09:55:28;;;;;;;;;;;10.10;28.00;;;;;;5091452;28;19916;-64
2021/03/05 09:57:54;;;;;;;;;;;10.20;28.30;;;;;;5074218;28;20274;-64
2021/03/05 10:00:46;;;;;;;;;;;10.50;28.30;;;;;;5092064;28;19916;-64
2021/03/05 10:03:12;;;;;;;;;;;10.00;29.70;;;;;;5068841;28;19919;-61
2021/03/05 10:05:40;;;;;;;;;;;11.60;28.70;;;;;;5091409;28;19920;-62
2021/03/05 10:08:13;;;;;;;;;;;11.40;26.20;;;;;;5091530;28;20301;-62
2021/03/05 10:10:54;;;;;;;;;;;11.40;27.00;;;;;;5090577;28;19920;-62
2021/03/05 10:13:20;;;;;;;;;;;11.90;25.40;;;;;;5090964;28;20277;-61
2021/03/05 10:15:49;;;;;;;;;;;12.30;26.30;;;;;;5087651;28;19912;-61
2021/03/05 10:18:15;;;;;;;;;;;12.70;24.90;;;;;;5088408;28;19913;-62
2021/03/05 10:20:51;;;;;;;;;;;11.60;25.90;;;;;;5091901;28;19912;-62
2021/03/05 10:23:17;;;;;;;;;;;11.50;26.10;;;;;;5090699;28;19916;-62
2021/03/05 10:25:52;;;;;;;;;;;11.00;26.80;;;;;;5091394;28;19926;-62
2021/03/05 10:28:24;;;;;;;;;;;12.00;26.80;;;;;;5091700;28;20292;-62
2021/03/05 10:30:51;;;;;;;;;;;13.80;23.30;;;;;;5090986;28;19920;-62
2021/03/05 10:33:35;;;;;;;;;;;13.40;22.40;;;;;;5091021;28;19924;-62
2021/03/05 10:36:01;;;;;;;;;;;13.30;22.90;;;;;;5090928;28;19912;-62
2021/03/05 10:38:27;;;;;;;;;;;13.10;22.80;;;;;;5087680;28;19923;-62
2021/03/05 10:40:53;;;;;;;;;;;13.80;24.00;;;;;;5091304;28;19928;-62
2021/03/05 10:43:19;;;;;;;;;;;15.60;20.30;;;;;;5073161;28;19930;-62
2021/03/05 10:45:45;;;;;;;;;;;15.00;20.10;;;;;;5090030;28;19924;-62
2021/03/05 10:48:11;;;;;;;;;;;14.00;21.30;;;;;;5090624;28;19919;-62
2021/03/05 10:50:37;;;;;;;;;;;13.90;22.40;;;;;;5091504;28;19916;-62
2021/03/05 10:53:03;;;;;;;;;;;14.50;21.00;;;;;;5092263;28;19924;-62
2021/03/05 10:55:29;;;;;;;;;;;13.40;22.60;;;;;;5100226;28;19989;-62
2021/03/05 10:57:54;;;;;;;;;;;14.10;21.30;;;;;;5094951;28;19939;-63
2021/03/05 11:00:20;;;;;;;;;;;13.60;22.30;;;;;;5095662;28;20361;-63
2021/03/05 11:02:46;;;;;;;;;;;14.40;21.40;;;;;;5095411;28;20281;-63
2021/03/05 11:05:13;;;;;;;;;;;13.50;21.10;;;;;;5091935;28;19917;-63
2021/03/05 11:07:38;;;;;;;;;;;13.20;21.70;;;;;;5095565;28;19924;-63
2021/03/05 11:10:05;;;;;;;;;;;13.10;22.40;;;;;;5095157;28;19923;-63
2021/03/05 11:12:31;;;;;;;;;;;14.30;21.00;;;;;;5095292;28;19912;-63
2021/03/05 11:14:56;;;;;;;;;;;13.20;21.40;;;;;;5095210;28;19924;-63
2021/03/05 11:17:23;;;;;;;;;;;12.50;22.70;;;;;;5076121;28;19935;-63
2021/03/05 11:19:49;;;;;;;;;;;13.60;21.30;;;;;;5094773;28;19921;-63
2021/03/05 11:22:15;;;;;;;;;;;14.70;20.50;;;;;;5095023;28;19923;-63
2021/03/05 11:24:41;;;;;;;;;;;15.20;17.90;;;;;;5094678;28;19935;-63
2021/03/05 11:27:07;;;;;;;;;;;15.60;18.90;;;;;;5075997;28;20289;-63
2021/03/05 11:29:33;;;;;;;;;;;16.50;19.70;;;;;;5094711;28;19966;-64
2021/03/05 11:32:00;;;;;;;;;;;16.20;18.10;;;;;;5094120;28;19920;-64
2021/03/05 11:34:26;;;;;;;;;;;18.00;16.10;;;;;;5094378;28;20302;-63
2021/03/05 11:36:52;;;;;;;;;;;18.90;14.90;;;;;;5093709;28;19919;-63
2021/03/05 11:39:18;;;;;;;;;;;18.00;15.80;;;;;;5094127;28;19964;-63
2021/03/05 11:41:44;;;;;;;;;;;17.10;16.00;;;;;;5094305;28;20477;-63
2021/03/05 11:44:09;;;;;;;;;;;15.90;18.70;;;;;;5092947;28;19965;-63
2021/03/05 11:46:37;;;;;;;;;;;15.80;19.00;;;;;;5093886;28;19920;-63
2021/03/05 11:49:03;;;;;;;;;;;16.50;18.40;;;;;;5094296;28;19920;-63
2021/03/05 11:51:29;;;;;;;;;;;14.90;18.90;;;;;;5076546;28;19927;-63
2021/03/05 11:53:54;;;;;;;;;;;13.40;20.10;;;;;;5093983;28;19916;-63
2021/03/05 11:56:20;;;;;;;;;;;13.10;21.80;;;;;;5094218;28;19912;-63
2021/03/05 11:58:46;;;;;;;;;;;13.10;21.40;;;;;;5094290;28;19942;-63
2021/03/05 12:01:13;;;;;;;;;;;12.30;22.30;;;;;;5093898;28;20372;-63
2021/03/05 12:03:40;;;;;;;;;;;11.30;23.50;;;;;;5075887;28;19922;-64
2021/03/05 12:06:06;;;;;;;;;;;13.50;22.90;;;;;;5093517;28;19930;-63
2021/03/05 12:08:32;;;;;;;;;;;13.40;20.60;;;;;;5093139;28;19920;-63
2021/03/05 12:10:58;;;;;;;;;;;12.60;22.20;;;;;;5094087;28;19915;-63
2021/03/05 12:13:24;;;;;;;;;;;14.60;20.90;;;;;;5094264;28;19908;-64
2021/03/05 12:15:50;;;;;;;;;;;15.00;19.80;;;;;;5093288;28;20360;-64
2021/03/05 12:18:16;;;;;;;;;;;15.00;19.10;;;;;;5093633;28;19922;-64
2021/03/05 12:20:42;;;;;;;;;;;15.70;18.60;;;;;;5074949;28;19961;-64
2021/03/05 12:23:08;;;;;;;;;;;16.30;18.90;;;;;;5093416;28;19957;-63
2021/03/05 12:25:34;;;;;;;;;;;16.20;18.70;;;;;;5093269;28;22280;-64
2021/03/05 12:28:00;;;;;;;;;;;15.70;17.50;;;;;;5093555;28;19923;-64
2021/03/05 12:30:26;;;;;;;;;;;15.00;17.50;;;;;;5094931;28;19915;-64
2021/03/05 12:32:52;;;;;;;;;;;13.40;19.90;;;;;;5075264;28;19942;-64
2021/03/05 12:35:19;;;;;;;;;;;15.80;19.30;;;;;;5092477;28;19916;-64
2021/03/05 12:37:45;;;;;;;;;;;15.60;18.00;;;;;;5092703;28;21204;-64
2021/03/05 12:40:13;;;;;;;;;;;13.40;19.40;;;;;;5091322;28;19908;-63
2021/03/05 12:42:39;;;;;;;;;;;13.40;21.00;;;;;;5072978;28;19919;-63
2021/03/05 12:45:06;;;;;;;;;;;13.40;21.00;;;;;;5078266;28;19938;-63
2021/03/05 12:47:32;;;;;;;;;;;13.90;20.20;;;;;;5080135;28;20379;-63
2021/03/05 12:49:58;;;;;;;;;;;15.10;18.30;;;;;;5083070;28;19922;-63
2021/03/05 12:52:24;;;;;;;;;;;14.80;19.30;;;;;;5098386;28;19919;-64
2021/03/05 12:54:50;;;;;;;;;;;13.40;18.90;;;;;;5100361;28;19912;-63
2021/03/05 12:57:16;;;;;;;;;;;12.50;20.70;;;;;;5102309;28;20213;-63
2021/03/05 12:59:43;;;;;;;;;;;14.60;20.30;;;;;;5099876;28;20361;-63
2021/03/05 13:02:09;;;;;;;;;;;14.40;19.30;;;;;;5095749;28;19916;-63
2021/03/05 13:04:35;;;;;;;;;;;11.80;22.30;;;;;;5082346;28;20356;-65
2021/03/05 13:07:01;;;;;;;;;;;12.40;23.50;;;;;;5093569;28;19927;-64
2021/03/05 13:09:27;;;;;;;;;;;13.10;21.60;;;;;;5095867;28;19911;-64
2021/03/05 13:11:53;;;;;;;;;;;13.60;22.00;;;;;;5094581;28;19957;-64
2021/03/05 13:14:19;;;;;;;;;;;12.60;22.60;;;;;;5074971;28;19915;-64
2021/03/05 13:16:45;;;;;;;;;;;10.70;26.40;;;;;;5096164;28;19912;-64
2021/03/05 13:19:11;;;;;;;;;;;11.20;27.00;;;;;;5091689;28;19967;-64
2021/03/05 13:21:37;;;;;;;;;;;11.90;26.90;;;;;;5093014;28;19916;-64
2021/03/05 13:24:03;;;;;;;;;;;10.70;28.00;;;;;;5074497;28;20010;-63
2021/03/05 13:26:29;;;;;;;;;;;11.00;27.50;;;;;;5092712;28;19923;-64
2021/03/05 13:28:55;;;;;;;;;;;10.10;30.00;;;;;;5093595;28;19935;-64
2021/03/05 13:31:21;;;;;;;;;;;9.10;32.30;;;;;;5091057;28;19916;-64
2021/03/05 13:33:47;;;;;;;;;;;9.20;32.00;;;;;;5091680;28;19926;-64
2021/03/05 13:36:13;;;;;;;;;;;8.80;33.50;;;;;;5072775;28;19920;-64
2021/03/05 13:38:39;;;;;;;;;;;8.90;33.00;;;;;;5092046;28;19916;-65
2021/03/05 13:41:05;;;;;;;;;;;9.20;33.80;;;;;;5092881;28;19904;-64
2021/03/05 13:43:31;;;;;;;;;;;8.40;34.30;;;;;;5092195;28;19912;-64
2021/03/05 13:45:57;;;;;;;;;;;8.90;33.90;;;;;;5092927;28;20058;-64
2021/03/05 13:48:23;;;;;;;;;;;8.80;34.60;;;;;;5092143;28;20329;-66
2021/03/05 13:50:49;;;;;;;;;;;7.70;36.00;;;;;;5092686;28;19942;-63
2021/03/05 13:53:15;;;;;;;;;;;8.00;36.50;;;;;;5091155;28;19911;-64
2021/03/05 13:55:41;;;;;;;;;;;8.10;36.70;;;;;;5090259;28;20361;-65
2021/03/05 13:58:06;;;;;;;;;;;7.50;37.40;;;;;;5073156;28;20344;-64
2021/03/05 14:00:33;;;;;;;;;;;7.30;37.70;;;;;;5091181;28;19923;-65
2021/03/05 14:02:59;;;;;;;;;;;7.30;38.00;;;;;;5091458;28;19912;-65
2021/03/05 14:05:25;;;;;;;;;;;7.20;38.50;;;;;;5090953;28;19923;-64
2021/03/05 14:07:50;;;;;;;;;;;7.20;37.80;;;;;;5091079;28;19927;-65
2021/03/05 14:10:16;;;;;;;;;;;7.00;38.50;;;;;;5090508;28;20406;-64
2021/03/05 14:12:42;;;;;;;;;;;6.80;38.50;;;;;;5090722;28;19915;-66
2021/03/05 14:15:08;;;;;;;;;;;6.60;38.80;;;;;;5073187;28;19912;-65
2021/03/05 14:17:35;;;;;;;;;;;6.20;39.80;;;;;;5091624;28;19908;-66
2021/03/05 14:20:01;;;;;;;;;;;6.00;40.20;;;;;;5091477;28;19908;-66